createdAt,value
2017-12-02T00:00:31.091Z,37.97
2017-12-02T00:02:58.581Z,45.25
2017-12-02T00:05:26.064Z,43.08
2017-12-02T00:07:53.527Z,41.45
2017-12-02T00:10:22.750Z,47.22
2017-12-02T00:26:02.768Z,49.72
2017-12-02T00:28:30.309Z,44.72
2017-12-02T00:30:57.828Z,44.47
2017-12-02T00:33:25.298Z,47.22
2017-12-02T00:35:52.790Z,48.90
2017-12-02T00:38:20.735Z,48.00
2017-12-02T00:40:48.279Z,45.05
2017-12-02T00:43:15.803Z,48.90
2017-12-02T00:45:43.261Z,44.92
2017-12-02T00:48:10.746Z,46.53
2017-12-02T00:50:38.243Z,44.58
2017-12-02T00:53:05.727Z,43.50
2017-12-02T00:55:33.187Z,46.03
2017-12-02T00:58:00.693Z,45.12
2017-12-02T01:00:28.163Z,39.85
2017-12-02T01:02:55.651Z,47.25
2017-12-02T01:05:23.129Z,41.45
2017-12-02T01:07:50.612Z,42.03
2017-12-02T01:10:18.075Z,45.33
2017-12-02T01:12:45.560Z,46.42
2017-12-02T01:15:13.039Z,51.20
2017-12-02T01:17:40.503Z,43.42
2017-12-02T01:20:08.028Z,41.15
2017-12-02T01:22:35.494Z,49.17
2017-12-02T01:25:03.186Z,43.80
2017-12-02T01:27:30.652Z,46.20
2017-12-02T01:29:58.095Z,45.12
2017-12-02T01:32:25.577Z,40.67
2017-12-02T01:34:53.045Z,40.50
2017-12-02T01:37:20.619Z,40.97
2017-12-02T01:39:48.086Z,42.10
2017-12-02T01:42:15.549Z,46.60
2017-12-02T01:44:43.010Z,43.22
2017-12-02T01:47:10.492Z,49.25
2017-12-02T01:49:37.943Z,48.03
2017-12-02T01:52:05.403Z,44.03
2017-12-02T01:54:32.891Z,44.92
2017-12-02T01:57:00.361Z,46.10
2017-12-02T01:59:27.856Z,41.97
2017-12-02T02:01:55.334Z,44.28
2017-12-02T02:04:22.803Z,40.42
2017-12-02T02:06:50.250Z,41.78
2017-12-02T02:09:17.722Z,46.60
2017-12-02T02:11:45.609Z,45.75
2017-12-02T02:14:13.093Z,51.80
2017-12-02T02:16:40.598Z,46.65
2017-12-02T02:19:08.115Z,40.40
2017-12-02T02:21:35.632Z,44.38
2017-12-02T02:24:03.128Z,48.35
2017-12-02T02:26:30.587Z,47.47
2017-12-02T02:28:59.071Z,44.65
2017-12-02T02:31:26.576Z,46.20
2017-12-02T02:33:54.464Z,46.28
2017-12-02T02:36:21.939Z,48.58
2017-12-02T02:38:49.408Z,41.72
2017-12-02T02:41:16.905Z,46.22
2017-12-02T02:43:44.380Z,46.00
2017-12-02T02:46:11.851Z,48.42
2017-12-02T02:48:39.338Z,45.30
2017-12-02T02:51:06.863Z,45.15
2017-12-02T02:53:34.362Z,44.03
2017-12-02T02:56:01.982Z,49.47
2017-12-02T02:58:29.458Z,41.83
2017-12-02T03:00:56.918Z,46.80
2017-12-02T03:03:24.439Z,47.97
2017-12-02T03:05:51.907Z,48.53
2017-12-02T03:08:19.360Z,49.75
2017-12-02T03:10:46.928Z,48.60
2017-12-02T03:13:14.391Z,51.13
2017-12-02T03:15:41.875Z,48.22
2017-12-02T03:18:09.370Z,51.05
2017-12-02T03:20:36.834Z,48.67
2017-12-02T03:23:04.308Z,55.33
2017-12-02T03:25:31.793Z,54.28
2017-12-02T03:27:59.274Z,49.38
2017-12-02T03:30:26.749Z,51.75
2017-12-02T03:32:54.263Z,50.38
2017-12-02T03:35:21.730Z,51.08
2017-12-02T03:37:49.212Z,49.47
2017-12-02T03:40:16.695Z,55.63
2017-12-02T03:42:44.160Z,60.65
2017-12-02T03:45:11.639Z,56.25
2017-12-02T03:47:39.123Z,55.47
2017-12-02T03:50:06.611Z,61.25
2017-12-02T03:52:34.083Z,61.95
2017-12-02T03:55:01.595Z,58.97
2017-12-02T03:57:29.068Z,61.90
2017-12-02T03:59:56.559Z,64.20
2017-12-02T04:02:24.143Z,56.05
2017-12-02T04:04:51.616Z,63.33
2017-12-02T04:07:19.140Z,62.55
2017-12-02T04:09:46.598Z,60.10
2017-12-02T04:12:14.126Z,54.63
2017-12-02T04:14:41.597Z,66.78
2017-12-02T04:17:09.060Z,60.50
2017-12-02T04:19:36.556Z,60.47
2017-12-02T04:22:04.028Z,63.50
2017-12-02T04:24:31.519Z,58.80
2017-12-02T04:26:59.047Z,66.37
2017-12-02T04:29:26.548Z,62.28
2017-12-02T04:31:54.011Z,60.12
2017-12-02T04:34:21.599Z,63.40
2017-12-02T04:36:49.068Z,68.12
2017-12-02T04:39:16.635Z,64.43
2017-12-02T04:41:44.144Z,62.30
2017-12-02T04:44:11.679Z,70.15
2017-12-02T04:46:39.148Z,71.78
2017-12-02T04:49:06.614Z,74.10
2017-12-02T04:51:34.103Z,73.75
2017-12-02T04:54:01.571Z,65.05
2017-12-02T04:56:29.047Z,70.62
2017-12-02T04:58:56.503Z,79.97
2017-12-02T05:01:24.025Z,71.47
2017-12-02T05:03:51.507Z,72.32
2017-12-02T05:06:19.934Z,71.00
2017-12-02T05:08:47.429Z,73.20
2017-12-02T05:11:14.995Z,77.47
2017-12-02T05:13:42.492Z,69.32
2017-12-02T05:16:09.971Z,78.15
2017-12-02T05:18:37.477Z,78.68
2017-12-02T05:21:04.967Z,84.50
2017-12-02T05:23:32.429Z,85.38
2017-12-02T05:25:59.921Z,102.97
2017-12-02T05:28:27.460Z,79.20
2017-12-02T05:30:54.939Z,86.85
2017-12-02T05:33:22.435Z,94.78
2017-12-02T05:35:49.940Z,90.05
2017-12-02T05:38:17.423Z,92.45
2017-12-02T05:40:44.928Z,92.40
2017-12-02T05:43:12.406Z,79.90
2017-12-02T05:45:39.872Z,87.03
2017-12-02T05:48:07.389Z,82.47
2017-12-02T05:50:34.883Z,82.62
2017-12-02T05:53:02.347Z,86.22
2017-12-02T05:55:29.843Z,97.18
2017-12-02T05:57:57.295Z,89.65
2017-12-02T06:00:24.765Z,86.72
2017-12-02T06:02:52.276Z,89.05
2017-12-02T06:05:19.763Z,83.05
2017-12-02T06:07:47.239Z,91.93
2017-12-02T06:10:14.727Z,85.68
2017-12-02T06:12:42.270Z,90.25
2017-12-02T06:15:09.756Z,89.87
2017-12-02T06:17:37.242Z,91.05
2017-12-02T06:20:04.721Z,94.55
2017-12-02T06:22:32.190Z,78.07
2017-12-02T06:24:59.662Z,96.63
2017-12-02T06:27:27.152Z,88.70
2017-12-02T06:29:54.632Z,91.25
2017-12-02T06:32:22.113Z,83.75
2017-12-02T06:34:49.682Z,96.47
2017-12-02T06:37:17.786Z,85.47
2017-12-02T06:39:45.822Z,93.30
2017-12-02T06:42:13.279Z,92.53
2017-12-02T06:44:40.811Z,105.43
2017-12-02T06:47:08.299Z,91.75
2017-12-02T06:49:35.775Z,104.82
2017-12-02T06:52:03.284Z,91.30
2017-12-02T06:54:30.769Z,94.50
2017-12-02T06:56:58.267Z,94.50
2017-12-02T06:59:25.778Z,87.20
2017-12-02T07:01:53.286Z,84.22
2017-12-02T07:04:20.792Z,87.50
2017-12-02T07:06:48.287Z,91.95
2017-12-02T07:09:15.776Z,86.45
2017-12-02T07:11:43.262Z,81.63
2017-12-02T07:14:10.775Z,84.18
2017-12-02T07:16:38.256Z,85.65
2017-12-02T07:19:05.772Z,108.90
2017-12-02T07:21:33.783Z,106.63
2017-12-02T07:24:01.286Z,101.40
2017-12-02T07:26:28.796Z,120.25
2017-12-02T07:28:56.257Z,89.13
2017-12-02T07:31:23.754Z,90.60
2017-12-02T07:33:51.255Z,95.47
2017-12-02T07:36:18.788Z,84.10
2017-12-02T07:38:46.304Z,80.30
2017-12-02T07:41:13.849Z,91.05
2017-12-02T07:43:41.340Z,79.78
2017-12-02T07:46:08.815Z,78.00
2017-12-02T07:48:36.299Z,75.45
2017-12-02T07:51:03.900Z,77.22
2017-12-02T07:53:31.353Z,75.62
2017-12-02T07:55:58.837Z,84.43
2017-12-02T07:58:26.326Z,72.25
2017-12-02T08:00:53.926Z,68.85
2017-12-02T08:03:21.468Z,76.30
2017-12-02T08:05:48.949Z,66.10
2017-12-02T08:08:16.456Z,66.10
2017-12-02T08:10:44.164Z,67.25
2017-12-02T08:13:11.746Z,61.47
2017-12-02T08:15:39.211Z,60.22
2017-12-02T08:18:06.704Z,62.67
2017-12-02T08:20:34.223Z,64.07
2017-12-02T08:23:01.828Z,57.62
2017-12-02T08:25:29.310Z,56.40
2017-12-02T08:27:56.971Z,51.97
2017-12-02T08:30:24.451Z,51.00
2017-12-02T08:32:51.941Z,54.65
2017-12-02T08:35:19.434Z,57.10
2017-12-02T08:37:46.928Z,57.30
2017-12-02T08:40:14.428Z,53.72
2017-12-02T08:42:41.915Z,50.90
2017-12-02T08:45:09.404Z,51.95
2017-12-02T08:47:36.888Z,49.75
2017-12-02T08:50:04.542Z,52.45
2017-12-02T08:52:32.054Z,49.65
2017-12-02T08:54:59.606Z,45.78
2017-12-02T08:57:27.078Z,43.67
2017-12-02T08:59:54.622Z,43.90
2017-12-02T09:02:22.141Z,51.92
2017-12-02T09:04:49.625Z,49.97
2017-12-02T09:07:17.127Z,42.83
2017-12-02T09:09:44.712Z,43.60
2017-12-02T09:12:12.324Z,44.22
2017-12-02T09:14:40.017Z,47.35
2017-12-02T09:17:09.009Z,42.42
2017-12-02T09:19:36.663Z,45.25
2017-12-02T09:22:04.406Z,45.95
2017-12-02T09:24:31.957Z,47.22
2017-12-02T09:27:00.037Z,38.28
2017-12-02T09:29:27.508Z,39.25
2017-12-02T09:31:55.781Z,36.90
2017-12-02T09:34:23.268Z,41.60
2017-12-02T09:36:50.771Z,39.85
2017-12-02T09:39:18.247Z,37.45
2017-12-02T09:41:45.800Z,40.42
2017-12-02T09:44:13.352Z,36.65
2017-12-02T09:46:40.823Z,39.75
2017-12-02T09:49:08.392Z,38.00
2017-12-02T09:51:35.897Z,37.65
2017-12-02T09:54:03.381Z,38.03
2017-12-02T09:56:30.869Z,38.10
2017-12-02T09:58:58.351Z,36.05
2017-12-02T10:01:25.824Z,41.05
2017-12-02T10:03:53.336Z,33.80
2017-12-02T10:06:20.803Z,32.83
2017-12-02T10:08:48.334Z,35.35
2017-12-02T10:11:15.824Z,29.98
2017-12-02T10:13:43.308Z,41.78
2017-12-02T10:16:10.859Z,29.90
2017-12-02T10:18:38.376Z,35.40
2017-12-02T10:21:05.863Z,32.08
2017-12-02T10:23:33.386Z,34.03
2017-12-02T10:26:00.844Z,31.27
2017-12-02T10:28:28.344Z,31.98
2017-12-02T10:30:55.843Z,30.45
2017-12-02T10:33:23.321Z,33.30
2017-12-02T10:35:50.808Z,31.62
2017-12-02T10:38:18.303Z,29.33
2017-12-02T10:40:45.767Z,36.13
2017-12-02T10:43:13.270Z,38.45
2017-12-02T10:45:40.788Z,33.58
2017-12-02T10:48:08.278Z,34.70
2017-12-02T10:50:35.778Z,39.63
2017-12-02T10:53:03.389Z,36.30
2017-12-02T10:55:30.884Z,30.88
2017-12-02T10:57:58.389Z,29.10
2017-12-02T11:00:25.847Z,29.00
2017-12-02T11:02:53.329Z,29.12
2017-12-02T11:05:20.866Z,28.17
2017-12-02T11:07:48.449Z,26.48
2017-12-02T11:10:16.640Z,29.33
2017-12-02T11:12:44.906Z,28.77
2017-12-02T11:15:13.359Z,27.37
2017-12-02T11:17:40.837Z,21.87
2017-12-02T11:20:08.399Z,25.80
2017-12-02T11:22:35.946Z,25.83
2017-12-02T11:25:03.483Z,24.90
2017-12-02T11:27:31.085Z,28.23
2017-12-02T11:29:58.663Z,24.05
2017-12-02T11:32:26.199Z,33.67
2017-12-02T11:34:53.765Z,26.87
2017-12-02T11:37:21.360Z,24.00
2017-12-02T11:39:48.880Z,26.75
2017-12-02T11:42:16.357Z,23.50
2017-12-02T11:44:43.832Z,24.77
2017-12-02T11:47:11.311Z,25.23
2017-12-02T11:49:38.813Z,22.17
2017-12-02T11:52:06.302Z,23.80
2017-12-02T11:54:33.788Z,20.90
2017-12-02T11:57:01.321Z,19.85
2017-12-02T11:59:29.027Z,20.80
2017-12-02T12:01:56.501Z,23.12
2017-12-02T12:04:23.967Z,24.08
2017-12-02T12:06:51.455Z,19.65
2017-12-02T12:09:18.935Z,25.65
2017-12-02T12:11:46.412Z,19.20
2017-12-02T12:14:13.912Z,22.53
2017-12-02T12:16:41.519Z,21.30
2017-12-02T12:19:09.050Z,21.90
2017-12-02T12:21:36.717Z,20.55
2017-12-02T12:24:04.261Z,17.48
2017-12-02T12:26:31.773Z,19.95
2017-12-02T12:29:04.131Z,17.00
2017-12-02T12:31:32.253Z,15.15
2017-12-02T12:33:59.818Z,15.65
2017-12-02T12:36:27.284Z,17.80
2017-12-02T12:38:54.782Z,21.50
2017-12-02T12:41:22.289Z,21.23
2017-12-02T12:43:49.808Z,20.45
2017-12-02T12:46:17.375Z,20.83
2017-12-02T12:48:44.860Z,24.73
2017-12-02T12:51:12.356Z,22.10
2017-12-02T12:53:39.839Z,21.25
2017-12-02T12:56:07.327Z,27.25
2017-12-02T12:58:34.843Z,24.23
2017-12-02T13:01:02.325Z,22.35
2017-12-02T13:03:29.799Z,21.73
2017-12-02T13:05:57.332Z,21.42
2017-12-02T13:08:24.864Z,27.37
2017-12-02T13:10:52.351Z,22.80
2017-12-02T13:13:19.817Z,23.80
2017-12-02T13:15:47.312Z,25.30
2017-12-02T13:18:14.809Z,26.80
2017-12-02T13:20:42.299Z,23.90
2017-12-02T13:23:09.801Z,24.85
2017-12-02T13:25:37.317Z,28.27
2017-12-02T13:28:05.650Z,25.40
2017-12-02T13:30:33.146Z,23.85
2017-12-02T13:33:00.604Z,26.15
2017-12-02T13:35:28.085Z,27.77
2017-12-02T13:37:55.668Z,24.30
2017-12-02T13:40:23.143Z,31.23
2017-12-02T13:42:50.640Z,26.87
2017-12-02T13:45:18.161Z,38.35
2017-12-02T13:47:45.652Z,35.10
2017-12-02T13:50:13.128Z,31.10
2017-12-02T13:52:40.613Z,32.77
2017-12-02T13:55:08.136Z,34.13
2017-12-02T13:57:35.663Z,23.58
2017-12-02T14:00:03.153Z,26.48
2017-12-02T14:02:30.629Z,23.67
2017-12-02T14:04:58.261Z,25.90
2017-12-02T14:07:25.724Z,29.10
2017-12-02T14:09:53.197Z,26.90
2017-12-02T14:12:20.727Z,31.63
2017-12-02T14:14:48.185Z,30.83
2017-12-02T14:17:15.686Z,31.67
2017-12-02T14:19:43.161Z,29.97
2017-12-02T14:22:10.643Z,30.70
2017-12-02T14:24:38.111Z,27.50
2017-12-02T14:27:05.568Z,26.70
2017-12-02T14:29:33.027Z,32.10
2017-12-02T14:32:00.532Z,26.10
2017-12-02T14:34:28.290Z,32.77
2017-12-02T14:36:55.891Z,33.07
2017-12-02T14:39:23.363Z,26.05
2017-12-02T14:41:50.836Z,25.33
2017-12-02T14:44:18.434Z,31.30
2017-12-02T14:46:45.920Z,29.35
2017-12-02T14:49:13.414Z,30.45
2017-12-02T14:51:40.887Z,30.15
2017-12-02T14:54:08.411Z,24.95
2017-12-02T14:56:35.903Z,30.70
2017-12-02T14:59:03.414Z,32.13
2017-12-02T15:01:30.877Z,31.77
2017-12-02T15:03:58.382Z,35.40
2017-12-02T15:06:25.860Z,34.03
2017-12-02T15:08:53.339Z,33.95
2017-12-02T15:11:20.855Z,36.00
2017-12-02T15:13:48.306Z,35.42
2017-12-02T15:16:15.832Z,34.60
2017-12-02T15:18:43.307Z,31.05
2017-12-02T15:21:25.480Z,36.20
2017-12-02T15:23:53.004Z,37.05
2017-12-02T15:26:20.576Z,33.22
2017-12-02T15:28:49.090Z,42.50
2017-12-02T15:31:16.670Z,37.72
2017-12-02T15:33:44.244Z,46.15
2017-12-02T15:36:11.772Z,43.20
2017-12-02T15:38:39.281Z,38.90
2017-12-02T15:41:06.800Z,41.25
2017-12-02T15:43:34.308Z,42.58
2017-12-02T15:46:01.889Z,37.65
2017-12-02T15:48:30.265Z,60.08
2017-12-02T15:50:57.869Z,41.63
2017-12-02T15:53:25.564Z,43.22
2017-12-02T15:55:53.096Z,47.25
2017-12-02T15:58:22.727Z,42.92
2017-12-02T16:00:50.736Z,39.60
2017-12-02T16:03:18.206Z,45.97
2017-12-02T16:05:45.820Z,46.92
2017-12-02T16:08:13.361Z,43.55
2017-12-02T16:13:13.079Z,45.58
2017-12-02T16:15:40.601Z,45.47
2017-12-02T16:18:08.102Z,45.22
2017-12-02T16:20:35.729Z,44.50
2017-12-02T16:23:03.365Z,45.58
2017-12-02T16:25:30.892Z,47.70
2017-12-02T16:27:58.471Z,43.38
2017-12-02T16:30:26.000Z,44.83
2017-12-02T16:32:54.000Z,43.72
2017-12-02T16:35:21.526Z,44.78
2017-12-02T16:37:49.032Z,46.47
2017-12-02T16:40:17.802Z,44.53
2017-12-02T16:42:48.622Z,50.03
2017-12-02T16:45:16.171Z,46.05
2017-12-02T16:47:43.684Z,51.72
2017-12-02T16:50:11.232Z,45.65
2017-12-02T16:52:38.766Z,45.20
2017-12-02T16:55:06.218Z,44.28
2017-12-02T16:57:33.773Z,49.88
2017-12-02T17:00:01.288Z,44.55
2017-12-02T17:02:28.793Z,48.15
2017-12-02T17:04:56.763Z,49.85
2017-12-02T17:07:24.240Z,42.05
2017-12-02T17:09:51.747Z,43.25
2017-12-02T17:12:19.991Z,44.33
2017-12-02T17:14:47.548Z,43.45
2017-12-02T17:17:15.190Z,53.60
2017-12-02T17:19:42.689Z,46.63
2017-12-02T17:22:10.196Z,48.55
2017-12-02T17:24:37.676Z,40.28
2017-12-02T17:27:05.241Z,49.35
2017-12-02T17:29:32.764Z,48.15
2017-12-02T17:32:00.240Z,46.37
2017-12-02T17:34:27.945Z,42.95
2017-12-02T17:36:57.510Z,53.85
2017-12-02T17:39:25.360Z,53.20
2017-12-02T17:41:53.370Z,49.55
2017-12-02T17:44:20.888Z,51.40
2017-12-02T17:46:48.372Z,51.35
2017-12-02T17:49:16.366Z,46.30
2017-12-02T17:51:44.282Z,56.40
2017-12-02T17:54:12.756Z,55.67
2017-12-02T17:56:40.340Z,52.22
2017-12-02T17:59:07.863Z,45.45
2017-12-02T18:01:35.387Z,50.05
2017-12-02T18:04:03.081Z,48.85
2017-12-02T18:06:30.557Z,50.30
2017-12-02T18:08:58.080Z,47.05
2017-12-02T18:11:25.591Z,50.80
2017-12-02T18:13:53.087Z,47.47
2017-12-02T18:16:20.599Z,52.25
2017-12-02T18:18:48.161Z,47.67
2017-12-02T18:21:15.632Z,54.20
2017-12-02T18:23:43.165Z,55.38
2017-12-02T18:26:10.682Z,52.10
2017-12-02T18:28:38.196Z,53.30
2017-12-02T18:31:05.736Z,53.20
2017-12-02T18:33:33.216Z,57.85
2017-12-02T18:36:00.782Z,55.10
2017-12-02T18:38:28.277Z,51.17
2017-12-02T18:40:55.811Z,57.33
2017-12-02T18:43:23.617Z,59.45
2017-12-02T18:45:54.760Z,51.85
2017-12-02T18:48:22.327Z,58.17
2017-12-02T18:50:51.164Z,49.03
2017-12-02T18:53:18.654Z,57.90
2017-12-02T18:55:46.169Z,57.28
2017-12-02T18:58:13.828Z,53.65
2017-12-02T19:00:41.340Z,60.03
2017-12-02T19:03:08.851Z,59.10
2017-12-02T19:05:36.349Z,50.78
2017-12-02T19:08:03.835Z,56.58
2017-12-02T19:10:32.562Z,51.80
2017-12-02T19:13:00.790Z,56.30
2017-12-02T19:15:28.484Z,51.53
2017-12-02T19:17:55.982Z,58.30
2017-12-02T19:20:23.490Z,60.20
2017-12-02T19:22:51.022Z,59.67
2017-12-02T19:25:18.672Z,57.70
2017-12-02T19:27:46.913Z,51.67
2017-12-02T19:30:14.414Z,50.22
2017-12-02T19:32:43.621Z,50.35
2017-12-02T19:35:11.187Z,47.33
2017-12-02T19:37:40.982Z,47.80
2017-12-02T19:53:07.222Z,52.78
2017-12-02T19:55:34.863Z,49.25
2017-12-02T19:58:02.368Z,55.45
2017-12-02T20:00:29.929Z,53.53
2017-12-02T20:02:57.480Z,54.95
2017-12-02T20:05:25.014Z,45.67
2017-12-02T20:07:52.745Z,50.78
2017-12-02T20:10:20.307Z,50.70
2017-12-02T20:12:47.907Z,49.60
2017-12-02T20:15:15.392Z,52.25
2017-12-02T20:17:42.910Z,49.03
2017-12-02T20:20:10.550Z,58.72
2017-12-02T20:22:38.396Z,52.62
2017-12-02T20:25:05.919Z,54.60
2017-12-02T20:27:33.432Z,54.45
2017-12-02T20:30:00.908Z,49.15
2017-12-02T20:32:28.416Z,48.00
2017-12-02T20:34:55.896Z,48.22
2017-12-02T20:37:23.437Z,47.33
2017-12-02T20:39:50.935Z,47.00
2017-12-02T20:42:18.483Z,45.90
2017-12-02T20:44:46.037Z,46.03
2017-12-02T20:47:13.590Z,45.30
2017-12-02T20:49:41.117Z,52.50
2017-12-02T20:52:08.573Z,42.85
2017-12-02T20:54:36.071Z,45.63
2017-12-02T20:57:03.613Z,44.65
2017-12-02T20:59:31.100Z,44.72
2017-12-02T21:01:58.640Z,43.65
2017-12-02T21:04:26.144Z,46.50
2017-12-02T21:06:53.714Z,44.03
2017-12-02T21:09:21.214Z,44.05
2017-12-02T21:11:48.795Z,49.78
2017-12-02T21:14:16.252Z,43.47
2017-12-02T21:16:44.690Z,41.40
2017-12-02T21:19:12.356Z,37.85
2017-12-02T21:21:39.855Z,37.28
2017-12-02T21:24:07.436Z,36.42
2017-12-02T21:26:34.913Z,35.55
2017-12-02T21:29:02.472Z,33.67
2017-12-02T21:31:30.123Z,41.17
2017-12-02T21:33:57.597Z,41.75
2017-12-02T21:36:25.109Z,42.08
2017-12-02T21:38:53.118Z,40.55
2017-12-02T21:41:20.704Z,45.00
2017-12-02T21:43:48.358Z,39.00
2017-12-02T21:46:16.989Z,39.08
2017-12-02T21:48:44.502Z,41.58
2017-12-02T21:51:12.109Z,39.42
2017-12-02T21:53:39.605Z,35.88
2017-12-02T21:56:07.127Z,41.88
2017-12-02T21:58:34.649Z,40.95
2017-12-02T22:01:02.545Z,38.05
2017-12-02T22:03:30.594Z,41.22
2017-12-02T22:05:58.128Z,40.40
2017-12-02T22:08:25.668Z,39.13
2017-12-02T22:10:53.146Z,34.53
2017-12-02T22:13:20.692Z,44.28
2017-12-02T22:15:48.255Z,42.30
2017-12-02T22:18:15.772Z,37.60
2017-12-02T22:20:43.248Z,45.90
2017-12-02T22:23:10.735Z,35.92
2017-12-02T22:25:38.274Z,41.40
2017-12-02T22:28:06.087Z,41.95
2017-12-02T22:30:33.551Z,42.38
2017-12-02T22:33:01.088Z,37.30
2017-12-02T22:35:29.032Z,43.80
2017-12-02T22:37:56.583Z,39.35
2017-12-02T22:40:24.070Z,45.60
2017-12-02T22:42:51.571Z,41.28
2017-12-02T22:45:19.087Z,40.53
2017-12-02T22:47:46.691Z,41.95
2017-12-02T22:50:14.164Z,39.92
2017-12-02T22:52:41.637Z,35.63
2017-12-02T22:55:09.154Z,38.03
2017-12-02T22:57:36.629Z,40.25
2017-12-02T23:00:04.121Z,37.88
2017-12-02T23:02:32.108Z,35.15
2017-12-02T23:05:00.577Z,41.83
2017-12-02T23:07:28.119Z,42.50
2017-12-02T23:09:55.624Z,36.47
2017-12-02T23:12:23.928Z,41.10
2017-12-02T23:14:51.456Z,36.53
2017-12-02T23:17:18.928Z,40.38
2017-12-02T23:19:47.445Z,44.75
2017-12-02T23:22:14.993Z,36.63
2017-12-02T23:24:42.499Z,44.53
2017-12-02T23:27:10.346Z,42.60
2017-12-02T23:29:37.902Z,36.75
2017-12-02T23:32:05.385Z,47.28
2017-12-02T23:34:32.876Z,45.92
2017-12-02T23:37:00.405Z,47.30
2017-12-02T23:39:27.938Z,40.33
2017-12-02T23:41:55.412Z,40.70
2017-12-02T23:44:22.945Z,38.40
2017-12-02T23:46:50.528Z,37.47
2017-12-02T23:49:18.049Z,42.30
2017-12-02T23:51:45.546Z,43.70
2017-12-02T23:54:13.010Z,40.97
2017-12-02T23:56:40.575Z,46.08
2017-12-02T23:59:08.112Z,41.63
